Big Springs, Idaho
Current Conditions -  °F | °C
As of 3:56 AM on Saturday 22 Nov 2014 (Local Time) from KDIJ Reporting Station
Overcast Overcast  
Wind Chill: 30°   Ceiling: 4600
Heat Index: 36°   Visibility: 10mi
Dew Point: 24°   Wind: 7mph
Humidity: 62%   Direction: 130°SE
Pressure: 29.81"   Gusts: NA
Location:  44.4984°N, 111.255°W
Report Text: KDIJ 221056Z AUTO 13006KT 10SM OVC046 02/M04 A2981 RMK AO2 T00221044 PRESFR SLP070
Loading
Personal Weather Stations






























Interactive Weather Map New forecast layout! Learn more

10-Day Weather Forecast

Advertisements
Track Severe Weather on mobile